Terminal Aerodrome Forecast
Issued by NWS

Home | Current Version | Previous Version | Text Only | Print | Product List | Glossary On
Versions: 1 2 3 4 5 6 7 8 9 10 11 12 13 14 15
000
FTUS44 KBMX 020500
TAFANB
TAF
KANB 020520Z 0206/0306 05003KT P6SM BKN100
      TEMPO 0210/0214 BKN015
     FM021400 05005KT P6SM VCSH OVC015
     FM021700 05006KT P6SM VCTS BKN025CB
     FM022210 05005KT P6SM VCTS BKN035CB=

USA.gov is the U.S. government's official web portal to all federal, state and local government web resources and services.